createdAt,value
2022-11-14T00:00:00.954Z,8.10
2022-11-14T00:00:11.024Z,8.10
2022-11-14T00:00:21.017Z,8.09
2022-11-14T00:00:31.045Z,8.10
2022-11-14T00:00:41.099Z,8.10
2022-11-14T00:00:51.174Z,8.09
2022-11-14T00:01:01.164Z,8.09
2022-11-14T00:01:11.265Z,8.07
2022-11-14T00:01:21.328Z,8.09
2022-11-14T00:01:31.299Z,8.09
2022-11-14T00:01:41.433Z,8.09
2022-11-14T00:01:51.605Z,8.09
2022-11-14T00:02:01.729Z,8.09
2022-11-14T00:02:11.782Z,8.09
2022-11-14T00:02:21.792Z,8.07
2022-11-14T00:02:31.971Z,8.09
2022-11-14T00:02:42.033Z,8.09
2022-11-14T00:02:52.092Z,8.06
2022-11-14T00:03:02.247Z,8.04
2022-11-14T00:03:12.345Z,8.04
2022-11-14T00:03:22.369Z,8.04
2022-11-14T00:03:32.554Z,8.03
2022-11-14T00:03:42.559Z,8.02
2022-11-14T00:03:52.698Z,7.96
2022-11-14T00:04:02.692Z,7.99
2022-11-14T00:04:12.800Z,7.96
2022-11-14T00:04:28.276Z,7.96
2022-11-14T00:04:33.841Z,7.95
2022-11-14T00:04:43.856Z,7.95
2022-11-14T00:04:53.903Z,7.95
2022-11-14T00:05:03.941Z,7.94
2022-11-14T00:05:13.976Z,7.94
2022-11-14T00:05:24.133Z,7.94
2022-11-14T00:05:34.174Z,7.94
2022-11-14T00:05:44.335Z,7.92
2022-11-14T00:05:54.358Z,7.94
2022-11-14T00:06:04.556Z,7.94
2022-11-14T00:06:14.585Z,7.94
2022-11-14T00:06:24.753Z,7.91
2022-11-14T00:06:34.822Z,7.92
2022-11-14T00:06:44.885Z,7.91
2022-11-14T00:06:55.016Z,7.92
2022-11-14T00:07:05.030Z,7.91
2022-11-14T00:07:15.058Z,7.92
2022-11-14T00:07:25.090Z,7.94
2022-11-14T00:07:35.152Z,7.91
2022-11-14T00:07:45.220Z,7.92
2022-11-14T00:07:55.240Z,7.91
2022-11-14T00:08:05.252Z,7.92
2022-11-14T00:08:15.392Z,7.92
2022-11-14T00:08:25.541Z,7.92
2022-11-14T00:08:35.603Z,7.92
2022-11-14T00:08:45.765Z,7.94
2022-11-14T00:08:55.943Z,7.92
2022-11-14T00:09:05.912Z,7.92
2022-11-14T00:09:16.073Z,7.94
2022-11-14T00:09:26.082Z,7.92
2022-11-14T00:09:36.275Z,7.94
2022-11-14T00:09:46.333Z,7.95
2022-11-14T00:09:56.365Z,7.95
2022-11-14T00:10:06.366Z,7.94
2022-11-14T00:10:16.510Z,7.94
2022-11-14T00:10:26.560Z,7.95
2022-11-14T00:10:36.620Z,7.95
2022-11-14T00:10:46.826Z,7.95
2022-11-14T00:10:56.842Z,7.96
2022-11-14T00:11:06.892Z,7.95
2022-11-14T00:11:16.917Z,7.99
2022-11-14T00:11:27.081Z,7.96
2022-11-14T00:11:37.141Z,7.96
2022-11-14T00:11:47.162Z,7.96
2022-11-14T00:11:57.202Z,7.94
2022-11-14T00:12:07.367Z,7.95
2022-11-14T00:12:17.542Z,7.95
2022-11-14T00:12:27.541Z,7.95
2022-11-14T00:12:37.562Z,7.95
2022-11-14T00:12:47.582Z,7.95
2022-11-14T00:12:57.664Z,7.96
2022-11-14T00:13:07.652Z,7.95
2022-11-14T00:13:17.660Z,7.95
2022-11-14T00:13:27.668Z,7.96
2022-11-14T00:13:37.862Z,7.96
2022-11-14T00:13:47.922Z,7.95
2022-11-14T00:13:57.994Z,7.95
2022-11-14T00:14:07.999Z,7.95
2022-11-14T00:14:18.022Z,7.95
2022-11-14T00:14:28.093Z,7.99
2022-11-14T00:14:38.250Z,7.96
2022-11-14T00:14:48.243Z,7.96
2022-11-14T00:14:58.437Z,7.95
2022-11-14T00:15:08.607Z,7.96
2022-11-14T00:15:18.601Z,7.96
2022-11-14T00:15:28.762Z,7.96
2022-11-14T00:15:38.812Z,7.99
2022-11-14T00:15:48.831Z,7.96
2022-11-14T00:15:58.839Z,7.95
2022-11-14T00:16:08.811Z,7.96
2022-11-14T00:16:18.819Z,7.96
2022-11-14T00:16:28.998Z,7.99
2022-11-14T00:16:39.044Z,8.00
2022-11-14T00:16:49.115Z,7.96
2022-11-14T00:16:59.261Z,7.99
2022-11-14T00:17:09.409Z,7.99
2022-11-14T00:17:19.431Z,7.99
2022-11-14T00:17:29.470Z,7.99
2022-11-14T00:17:39.677Z,7.99
2022-11-14T00:17:49.690Z,7.96
2022-11-14T00:17:59.669Z,7.99
2022-11-14T00:18:09.681Z,7.99
2022-11-14T00:18:19.832Z,7.99
2022-11-14T00:18:30.209Z,7.99
2022-11-14T00:18:39.920Z,7.96
2022-11-14T00:18:49.956Z,7.99
2022-11-14T00:19:00.126Z,7.96
2022-11-14T00:19:10.123Z,7.95
2022-11-14T00:19:20.144Z,7.96
2022-11-14T00:19:30.190Z,7.94
2022-11-14T00:19:40.224Z,7.96
2022-11-14T00:19:50.221Z,7.95
2022-11-14T00:20:00.383Z,7.94
2022-11-14T00:20:10.419Z,7.95
2022-11-14T00:20:20.570Z,7.95
2022-11-14T00:20:30.583Z,7.95
2022-11-14T00:20:40.749Z,7.95
2022-11-14T00:20:50.721Z,7.96
2022-11-14T00:21:00.759Z,7.94
2022-11-14T00:21:10.767Z,7.96
2022-11-14T00:21:20.944Z,7.95
2022-11-14T00:21:31.101Z,7.95
2022-11-14T00:21:41.120Z,7.95
2022-11-14T00:21:51.113Z,7.94
2022-11-14T00:22:01.448Z,7.95
2022-11-14T00:22:11.300Z,7.94
2022-11-14T00:22:21.353Z,7.95
2022-11-14T00:22:31.566Z,7.95
2022-11-14T00:22:41.599Z,7.95
2022-11-14T00:22:51.638Z,7.95
2022-11-14T00:23:01.659Z,7.96
2022-11-14T00:23:11.738Z,7.96
2022-11-14T00:23:21.921Z,7.96
2022-11-14T00:23:31.978Z,7.99
2022-11-14T00:23:41.990Z,7.96
2022-11-14T00:23:51.989Z,7.96
2022-11-14T00:24:02.136Z,7.96
2022-11-14T00:24:12.269Z,7.95
2022-11-14T00:24:22.379Z,7.96
2022-11-14T00:24:32.432Z,7.96
2022-11-14T00:24:42.442Z,7.96
2022-11-14T00:24:52.441Z,7.99
2022-11-14T00:25:02.440Z,8.00
2022-11-14T00:25:12.483Z,7.99
2022-11-14T00:25:22.672Z,8.00
2022-11-14T00:25:32.872Z,7.96
2022-11-14T00:25:42.866Z,8.00
2022-11-14T00:25:52.859Z,8.00
2022-11-14T00:26:02.869Z,7.99
2022-11-14T00:26:12.944Z,8.00
2022-11-14T00:26:22.942Z,8.00
2022-11-14T00:26:33.039Z,7.99
2022-11-14T00:26:43.023Z,8.00
2022-11-14T00:26:53.200Z,8.02
2022-11-14T00:27:03.289Z,7.96
2022-11-14T00:27:13.405Z,8.00
2022-11-14T00:27:23.515Z,8.00
2022-11-14T00:27:33.530Z,7.99
2022-11-14T00:27:43.688Z,8.00
2022-11-14T00:27:53.798Z,8.00
2022-11-14T00:28:03.842Z,8.02
2022-11-14T00:28:14.031Z,8.02
2022-11-14T00:28:24.052Z,8.00
2022-11-14T00:28:34.135Z,8.03
2022-11-14T00:28:44.112Z,8.03
2022-11-14T00:28:54.262Z,8.00
2022-11-14T00:29:04.409Z,8.02
2022-11-14T00:29:14.437Z,8.02
2022-11-14T00:29:24.573Z,8.00
2022-11-14T00:29:34.769Z,8.03
2022-11-14T00:29:44.896Z,8.03
2022-11-14T00:29:54.911Z,8.00
2022-11-14T00:30:05.062Z,8.00
2022-11-14T00:30:15.108Z,7.99
2022-11-14T00:30:25.107Z,8.03
2022-11-14T00:30:35.133Z,8.02
2022-11-14T00:30:45.122Z,8.02
2022-11-14T00:30:55.162Z,8.03
2022-11-14T00:31:05.348Z,8.02
2022-11-14T00:31:15.330Z,8.00
2022-11-14T00:31:25.377Z,8.02
2022-11-14T00:31:35.538Z,8.02
2022-11-14T00:31:45.684Z,8.02
2022-11-14T00:31:55.810Z,8.03
2022-11-14T00:32:05.980Z,8.02
2022-11-14T00:32:16.133Z,8.02
2022-11-14T00:32:26.303Z,8.03
2022-11-14T00:32:36.345Z,8.02
2022-11-14T00:32:46.329Z,8.03
2022-11-14T00:32:56.484Z,8.03
2022-11-14T00:33:06.489Z,8.02
2022-11-14T00:33:20.384Z,8.02
2022-11-14T00:33:26.753Z,8.02
2022-11-14T00:33:36.886Z,8.03
2022-11-14T00:33:46.923Z,8.02
2022-11-14T00:33:56.917Z,8.02
2022-11-14T00:34:07.072Z,8.02
2022-11-14T00:34:17.237Z,8.02
2022-11-14T00:34:27.311Z,8.03
2022-11-14T00:34:37.328Z,8.03
2022-11-14T00:34:47.469Z,8.03
2022-11-14T00:34:57.501Z,8.04
2022-11-14T00:35:07.611Z,8.02
2022-11-14T00:35:17.739Z,8.02
2022-11-14T00:35:27.812Z,8.02
2022-11-14T00:35:37.929Z,8.02
2022-11-14T00:35:47.972Z,8.02
2022-11-14T00:35:57.950Z,8.03
2022-11-14T00:36:08.113Z,8.02
2022-11-14T00:36:18.277Z,8.02
2022-11-14T00:36:28.436Z,8.02
2022-11-14T00:36:38.629Z,8.02
2022-11-14T00:36:48.678Z,8.03
2022-11-14T00:36:58.830Z,8.03
2022-11-14T00:37:08.940Z,8.03
2022-11-14T00:37:19.088Z,8.04
2022-11-14T00:37:29.249Z,8.03
2022-11-14T00:37:39.397Z,8.03
2022-11-14T00:37:49.437Z,8.02
2022-11-14T00:37:59.598Z,8.03
2022-11-14T00:38:09.629Z,8.02
2022-11-14T00:38:19.787Z,8.03
2022-11-14T00:38:30.017Z,8.03
2022-11-14T00:38:39.827Z,8.02
2022-11-14T00:38:50.031Z,8.02
2022-11-14T00:39:00.084Z,8.02
2022-11-14T00:39:10.055Z,8.03
2022-11-14T00:39:20.220Z,7.99
2022-11-14T00:39:30.386Z,8.00
2022-11-14T00:39:40.448Z,8.00
2022-11-14T00:39:50.477Z,7.99
2022-11-14T00:40:00.689Z,8.02
2022-11-14T00:40:10.692Z,8.02
2022-11-14T00:40:20.740Z,8.00
2022-11-14T00:40:30.727Z,8.02
2022-11-14T00:40:40.767Z,8.00
2022-11-14T00:40:50.943Z,8.00
2022-11-14T00:41:00.937Z,7.99
2022-11-14T00:41:10.939Z,8.00
2022-11-14T00:41:21.109Z,8.00
2022-11-14T00:41:31.270Z,7.99
2022-11-14T00:41:41.430Z,8.00
2022-11-14T00:41:51.448Z,7.96
2022-11-14T00:42:01.469Z,7.99
2022-11-14T00:42:11.471Z,7.99
2022-11-14T00:42:21.492Z,7.96
2022-11-14T00:42:31.487Z,7.99
2022-11-14T00:42:41.647Z,7.96
2022-11-14T00:42:51.762Z,7.96
2022-11-14T00:43:01.797Z,7.96
2022-11-14T00:43:11.797Z,7.95
2022-11-14T00:43:21.819Z,7.96
2022-11-14T00:43:31.864Z,7.95
2022-11-14T00:43:41.883Z,7.94
2022-11-14T00:43:51.908Z,7.96
2022-11-14T00:44:01.946Z,7.96
2022-11-14T00:44:11.979Z,7.95
2022-11-14T00:44:22.012Z,7.95
2022-11-14T00:44:32.047Z,7.94
2022-11-14T00:44:42.109Z,7.92
2022-11-14T00:44:52.200Z,7.94
2022-11-14T00:45:02.239Z,7.94
2022-11-14T00:45:12.382Z,7.92
2022-11-14T00:45:22.551Z,7.92
2022-11-14T00:45:32.718Z,7.94
2022-11-14T00:45:42.790Z,7.94
2022-11-14T00:45:52.769Z,7.92
2022-11-14T00:46:02.779Z,7.92
2022-11-14T00:46:12.767Z,7.92
2022-11-14T00:46:22.785Z,7.91
2022-11-14T00:46:32.840Z,7.92
2022-11-14T00:46:43.021Z,7.91
2022-11-14T00:46:53.066Z,7.91
2022-11-14T00:47:03.084Z,7.94
2022-11-14T00:47:13.076Z,7.92
2022-11-14T00:47:23.084Z,7.92
2022-11-14T00:47:33.255Z,7.94
2022-11-14T00:47:43.346Z,7.92
2022-11-14T00:47:53.517Z,7.94
2022-11-14T00:48:03.519Z,7.94
2022-11-14T00:48:13.527Z,7.92
2022-11-14T00:48:23.556Z,7.92
2022-11-14T00:48:33.606Z,7.92
2022-11-14T00:48:43.606Z,7.91
2022-11-14T00:48:53.658Z,7.91
2022-11-14T00:49:03.627Z,7.92
2022-11-14T00:49:13.794Z,7.92
2022-11-14T00:49:23.838Z,7.92
2022-11-14T00:49:33.876Z,7.92
2022-11-14T00:49:43.871Z,7.92
2022-11-14T00:49:53.846Z,7.92
2022-11-14T00:50:03.876Z,7.94
2022-11-14T00:50:13.937Z,7.92
2022-11-14T00:50:24.020Z,7.91
2022-11-14T00:50:34.077Z,7.92
2022-11-14T00:50:44.091Z,7.92
2022-11-14T00:50:54.116Z,7.92
2022-11-14T00:51:04.256Z,7.92
2022-11-14T00:51:14.237Z,7.92
2022-11-14T00:51:24.424Z,7.94
2022-11-14T00:51:34.620Z,7.95
2022-11-14T00:51:44.668Z,7.94
2022-11-14T00:51:54.615Z,7.94
2022-11-14T00:52:04.645Z,7.94
2022-11-14T00:52:14.811Z,7.92
2022-11-14T00:52:24.996Z,7.91
2022-11-14T00:52:35.035Z,7.92
2022-11-14T00:52:45.006Z,7.92
2022-11-14T00:52:55.168Z,7.94
2022-11-14T00:53:05.186Z,7.92
2022-11-14T00:53:15.234Z,7.92
2022-11-14T00:53:25.315Z,7.94
2022-11-14T00:53:35.366Z,7.92
2022-11-14T00:53:45.387Z,7.92
2022-11-14T00:53:55.426Z,7.95
2022-11-14T00:54:05.502Z,7.94
2022-11-14T00:54:15.550Z,7.94
2022-11-14T00:54:25.618Z,7.94
2022-11-14T00:54:35.737Z,7.92
2022-11-14T00:54:45.774Z,7.94
2022-11-14T00:54:55.786Z,7.94
2022-11-14T00:55:05.826Z,7.94
2022-11-14T00:55:15.967Z,7.94
2022-11-14T00:55:25.963Z,7.95
2022-11-14T00:55:35.944Z,7.95
2022-11-14T00:55:46.099Z,7.95
2022-11-14T00:55:56.112Z,7.92
2022-11-14T00:56:06.145Z,7.95
2022-11-14T00:56:16.222Z,7.94
2022-11-14T00:56:26.261Z,7.94
2022-11-14T00:56:36.282Z,7.94
2022-11-14T00:56:46.276Z,7.94
2022-11-14T00:56:56.304Z,7.95
2022-11-14T00:57:06.397Z,7.95
2022-11-14T00:57:16.441Z,7.94
2022-11-14T00:57:26.700Z,7.95
2022-11-14T00:57:36.707Z,7.95
2022-11-14T00:57:46.885Z,7.95
2022-11-14T00:57:56.946Z,7.96
2022-11-14T00:58:07.109Z,7.95
2022-11-14T00:58:17.177Z,7.96
2022-11-14T00:58:27.633Z,7.95
2022-11-14T00:58:37.361Z,7.95
2022-11-14T00:58:47.516Z,7.95
2022-11-14T00:58:57.570Z,7.95
2022-11-14T00:59:07.597Z,7.96
2022-11-14T00:59:17.672Z,7.95
2022-11-14T00:59:27.727Z,7.95
2022-11-14T00:59:37.824Z,7.95
2022-11-14T00:59:47.929Z,7.95
2022-11-14T00:59:57.932Z,7.95
2022-11-14T01:00:07.926Z,7.95
2022-11-14T01:00:18.115Z,7.95
2022-11-14T01:00:28.199Z,7.95
2022-11-14T01:00:38.243Z,7.95
2022-11-14T01:00:48.300Z,7.96
2022-11-14T01:00:58.455Z,7.96
2022-11-14T01:01:08.567Z,7.96
2022-11-14T01:01:18.635Z,7.96
2022-11-14T01:01:28.656Z,7.96
2022-11-14T01:01:38.693Z,7.95
2022-11-14T01:01:48.822Z,7.95
2022-11-14T01:01:58.877Z,7.95
2022-11-14T01:02:08.900Z,7.96
2022-11-14T01:02:18.912Z,7.96
2022-11-14T01:02:28.915Z,7.96
2022-11-14T01:02:38.984Z,7.96
2022-11-14T01:02:49.164Z,7.96
2022-11-14T01:02:59.313Z,7.99
2022-11-14T01:03:09.373Z,7.99
2022-11-14T01:03:19.373Z,7.96
2022-11-14T01:03:29.597Z,7.96
2022-11-14T01:03:39.572Z,7.96
2022-11-14T01:03:49.614Z,7.96
2022-11-14T01:03:59.784Z,7.96
2022-11-14T01:04:09.915Z,7.96
2022-11-14T01:04:20.135Z,7.96
2022-11-14T01:04:30.065Z,7.95
2022-11-14T01:04:40.094Z,7.96
2022-11-14T01:04:50.263Z,7.99
2022-11-14T01:05:00.427Z,7.96
2022-11-14T01:05:10.446Z,7.95
2022-11-14T01:05:20.506Z,7.94
2022-11-14T01:05:30.526Z,7.96
2022-11-14T01:05:40.523Z,7.95
2022-11-14T01:05:50.546Z,7.94
2022-11-14T01:06:00.706Z,7.95
2022-11-14T01:06:10.865Z,7.94
2022-11-14T01:06:21.065Z,7.92
2022-11-14T01:06:31.025Z,7.92
2022-11-14T01:06:41.206Z,7.92
2022-11-14T01:06:51.255Z,7.91
2022-11-14T01:07:01.453Z,7.92
2022-11-14T01:07:11.523Z,7.91
2022-11-14T01:07:21.620Z,7.91
2022-11-14T01:07:31.633Z,7.91
2022-11-14T01:07:41.684Z,7.91
2022-11-14T01:07:51.789Z,7.91
2022-11-14T01:08:01.910Z,7.91
2022-11-14T01:08:11.979Z,7.92
2022-11-14T01:08:22.038Z,7.91
2022-11-14T01:08:32.300Z,7.91
2022-11-14T01:08:42.115Z,7.91
2022-11-14T01:08:52.298Z,7.91
2022-11-14T01:09:02.312Z,7.91
2022-11-14T01:09:12.360Z,7.91
2022-11-14T01:09:22.503Z,7.91
2022-11-14T01:09:32.531Z,7.91
2022-11-14T01:09:42.566Z,7.91
2022-11-14T01:09:52.565Z,7.91
2022-11-14T01:10:02.614Z,7.91
2022-11-14T01:10:12.613Z,7.91
2022-11-14T01:10:22.626Z,7.91
2022-11-14T01:10:32.684Z,7.89
2022-11-14T01:10:42.695Z,7.91
2022-11-14T01:10:52.863Z,7.88
2022-11-14T01:11:03.040Z,7.89
2022-11-14T01:11:13.114Z,7.91
2022-11-14T01:11:23.257Z,7.89
2022-11-14T01:11:33.423Z,7.89
2022-11-14T01:11:43.431Z,7.89
2022-11-14T01:11:53.494Z,7.89
2022-11-14T01:12:03.534Z,7.89
2022-11-14T01:12:13.664Z,7.86
2022-11-14T01:12:23.684Z,7.88
2022-11-14T01:12:33.863Z,7.88
2022-11-14T01:12:43.926Z,7.88
2022-11-14T01:12:53.963Z,7.85
2022-11-14T01:13:04.128Z,7.88
2022-11-14T01:13:14.164Z,7.86
2022-11-14T01:13:24.304Z,7.86
2022-11-14T01:13:34.297Z,7.85
2022-11-14T01:13:44.320Z,7.86
2022-11-14T01:13:54.464Z,7.86
2022-11-14T01:14:04.551Z,7.86
2022-11-14T01:14:14.719Z,7.85
2022-11-14T01:14:24.823Z,7.86
2022-11-14T01:14:34.980Z,7.85
2022-11-14T01:14:45.013Z,7.86
2022-11-14T01:14:55.175Z,7.85
2022-11-14T01:15:05.191Z,7.85
2022-11-14T01:15:15.362Z,7.85
2022-11-14T01:15:25.423Z,7.86
2022-11-14T01:15:35.441Z,7.84
2022-11-14T01:15:45.443Z,7.84
2022-11-14T01:15:55.583Z,7.84
2022-11-14T01:16:05.672Z,7.84
2022-11-14T01:16:15.859Z,7.84
2022-11-14T01:16:25.910Z,7.84
2022-11-14T01:16:35.873Z,7.85
2022-11-14T01:16:45.880Z,7.84
2022-11-14T01:16:55.944Z,7.84
2022-11-14T01:17:05.949Z,7.85
2022-11-14T01:17:16.095Z,7.84
2022-11-14T01:17:26.283Z,7.84
2022-11-14T01:17:36.342Z,7.85
2022-11-14T01:17:46.317Z,7.84
2022-11-14T01:17:56.331Z,7.85
2022-11-14T01:18:06.431Z,7.84
2022-11-14T01:18:16.434Z,7.82
2022-11-14T01:18:26.888Z,7.84
2022-11-14T01:18:36.730Z,7.82
2022-11-14T01:18:46.695Z,7.82
2022-11-14T01:18:56.848Z,7.82
2022-11-14T01:19:06.899Z,7.82
2022-11-14T01:19:17.035Z,7.82
2022-11-14T01:19:27.184Z,7.84
2022-11-14T01:19:37.170Z,7.82
2022-11-14T01:19:47.206Z,7.81
2022-11-14T01:19:57.342Z,7.82
2022-11-14T01:20:07.525Z,7.81
2022-11-14T01:20:17.548Z,7.82
2022-11-14T01:20:27.744Z,7.81
2022-11-14T01:20:37.849Z,7.84
2022-11-14T01:20:47.852Z,7.82
2022-11-14T01:20:57.897Z,7.82
2022-11-14T01:21:07.974Z,7.84
2022-11-14T01:21:18.004Z,7.82
2022-11-14T01:21:28.023Z,7.84
2022-11-14T01:21:38.042Z,7.82
2022-11-14T01:21:48.052Z,7.82
2022-11-14T01:22:01.633Z,7.81
2022-11-14T01:22:09.100Z,7.81
2022-11-14T01:22:19.186Z,7.82
2022-11-14T01:22:29.223Z,7.81
2022-11-14T01:22:39.279Z,7.81
2022-11-14T01:22:49.292Z,7.81
2022-11-14T01:22:59.463Z,7.79
2022-11-14T01:23:09.615Z,7.81
2022-11-14T01:23:19.609Z,7.77
2022-11-14T01:23:29.652Z,7.79
2022-11-14T01:23:39.663Z,7.79
2022-11-14T01:23:49.840Z,7.77
2022-11-14T01:23:59.819Z,7.77
2022-11-14T01:24:09.842Z,7.77
2022-11-14T01:24:19.892Z,7.77
2022-11-14T01:24:29.895Z,7.76
2022-11-14T01:24:39.966Z,7.77
2022-11-14T01:24:50.012Z,7.77
2022-11-14T01:25:00.068Z,7.76
2022-11-14T01:25:10.137Z,7.76
2022-11-14T01:25:20.313Z,7.76
2022-11-14T01:25:30.481Z,7.76
2022-11-14T01:25:40.517Z,7.76
2022-11-14T01:25:50.661Z,7.76
2022-11-14T01:26:00.720Z,7.71
2022-11-14T01:26:10.732Z,7.74
2022-11-14T01:26:20.891Z,7.74
2022-11-14T01:26:30.931Z,7.73
2022-11-14T01:26:41.101Z,7.74
2022-11-14T01:26:51.171Z,7.73
2022-11-14T01:27:01.229Z,7.74
2022-11-14T01:27:11.305Z,7.71
2022-11-14T01:27:21.385Z,7.73
2022-11-14T01:27:31.354Z,7.73
2022-11-14T01:27:41.432Z,7.74
2022-11-14T01:27:51.491Z,7.71
2022-11-14T01:28:01.584Z,7.73
2022-11-14T01:28:11.679Z,7.73
2022-11-14T01:28:21.732Z,7.73
2022-11-14T01:28:32.045Z,7.73
2022-11-14T01:28:41.852Z,7.71
2022-11-14T01:28:51.891Z,7.71
2022-11-14T01:29:01.902Z,7.73
2022-11-14T01:29:11.920Z,7.73
2022-11-14T01:29:22.094Z,7.74
2022-11-14T01:29:32.139Z,7.73
2022-11-14T01:29:42.212Z,7.73
2022-11-14T01:29:52.278Z,7.73
2022-11-14T01:30:02.350Z,7.76
2022-11-14T01:30:12.408Z,7.74
2022-11-14T01:30:22.516Z,7.74
2022-11-14T01:30:32.519Z,7.73
2022-11-14T01:30:42.724Z,7.74
2022-11-14T01:30:52.791Z,7.73
2022-11-14T01:31:02.840Z,7.73
2022-11-14T01:31:12.908Z,7.74
2022-11-14T01:31:22.955Z,7.74
2022-11-14T01:31:32.974Z,7.74
2022-11-14T01:31:43.004Z,7.76
2022-11-14T01:31:53.038Z,7.73
2022-11-14T01:32:03.050Z,7.74
2022-11-14T01:32:13.192Z,7.74
2022-11-14T01:32:23.222Z,7.73
2022-11-14T01:32:33.246Z,7.73
2022-11-14T01:32:43.251Z,7.71
2022-11-14T01:32:53.308Z,7.71
2022-11-14T01:33:03.391Z,7.73
2022-11-14T01:33:13.492Z,7.73
2022-11-14T01:33:23.663Z,7.73
2022-11-14T01:33:33.690Z,7.73
2022-11-14T01:33:43.731Z,7.71
2022-11-14T01:33:53.894Z,7.71
2022-11-14T01:34:03.930Z,7.73
2022-11-14T01:34:14.081Z,7.70
2022-11-14T01:34:24.196Z,7.70
2022-11-14T01:34:34.175Z,7.73
2022-11-14T01:34:44.220Z,7.70
2022-11-14T01:34:54.281Z,7.71
2022-11-14T01:35:04.291Z,7.70
2022-11-14T01:35:14.304Z,7.70
2022-11-14T01:35:24.331Z,7.71
2022-11-14T01:35:34.522Z,7.71
2022-11-14T01:35:44.520Z,7.71
2022-11-14T01:35:54.550Z,7.70
2022-11-14T01:36:04.522Z,7.71
2022-11-14T01:36:14.729Z,7.71
2022-11-14T01:36:24.889Z,7.70
2022-11-14T01:36:34.860Z,7.70
2022-11-14T01:36:44.919Z,7.71
2022-11-14T01:36:54.900Z,7.71
2022-11-14T01:37:05.144Z,7.70
2022-11-14T01:37:15.134Z,7.70
2022-11-14T01:37:25.170Z,7.71
2022-11-14T01:37:35.321Z,7.71
2022-11-14T01:37:45.490Z,7.73
2022-11-14T01:37:55.490Z,7.71
2022-11-14T01:38:05.641Z,7.71
2022-11-14T01:38:15.677Z,7.71
2022-11-14T01:38:25.837Z,7.71
2022-11-14T01:38:36.057Z,7.70
2022-11-14T01:38:46.102Z,7.71
2022-11-14T01:38:56.083Z,7.71
2022-11-14T01:39:06.242Z,7.70
2022-11-14T01:39:16.459Z,7.71
2022-11-14T01:39:26.450Z,7.71
2022-11-14T01:39:36.521Z,7.71
2022-11-14T01:39:46.534Z,7.71
2022-11-14T01:39:56.694Z,7.70
2022-11-14T01:40:06.825Z,7.70
2022-11-14T01:40:16.878Z,7.71
2022-11-14T01:40:27.000Z,7.70
2022-11-14T01:40:37.168Z,7.71
2022-11-14T01:40:47.195Z,7.71
2022-11-14T01:40:57.221Z,7.70
2022-11-14T01:41:07.389Z,7.70
2022-11-14T01:41:17.424Z,7.70
2022-11-14T01:41:27.487Z,7.70
2022-11-14T01:41:37.629Z,7.70
2022-11-14T01:41:47.726Z,7.70
2022-11-14T01:41:57.756Z,7.70
2022-11-14T01:42:07.780Z,7.70
2022-11-14T01:42:18.351Z,7.70
2022-11-14T01:42:27.967Z,7.70
2022-11-14T01:42:38.146Z,7.71
2022-11-14T01:42:48.125Z,7.71
2022-11-14T01:42:58.150Z,7.71
2022-11-14T01:43:08.180Z,7.71
2022-11-14T01:43:18.319Z,7.70
2022-11-14T01:43:28.349Z,7.70
2022-11-14T01:43:38.390Z,7.70
2022-11-14T01:43:48.550Z,7.70
2022-11-14T01:43:58.750Z,7.70
2022-11-14T01:44:08.726Z,7.69
2022-11-14T01:44:18.889Z,7.69
2022-11-14T01:44:28.960Z,7.67
2022-11-14T01:44:39.116Z,7.69
2022-11-14T01:44:49.209Z,7.67
2022-11-14T01:44:59.220Z,7.67
2022-11-14T01:45:09.230Z,7.67
2022-11-14T01:45:19.240Z,7.66
2022-11-14T01:45:29.279Z,7.67
2022-11-14T01:45:39.289Z,7.67
2022-11-14T01:45:49.375Z,7.63
2022-11-14T01:45:59.399Z,7.62
2022-11-14T01:46:09.392Z,7.63
2022-11-14T01:46:19.492Z,7.60
2022-11-14T01:46:29.541Z,7.58
2022-11-14T01:46:39.713Z,7.55
2022-11-14T01:46:49.702Z,7.55
2022-11-14T01:46:59.680Z,7.52
2022-11-14T01:47:09.689Z,7.52
2022-11-14T01:47:19.842Z,7.54
2022-11-14T01:47:30.052Z,7.51
2022-11-14T01:47:40.100Z,7.52
2022-11-14T01:47:50.171Z,7.48
2022-11-14T01:48:00.322Z,7.51
2022-11-14T01:48:10.452Z,7.50
2022-11-14T01:48:20.594Z,7.51
2022-11-14T01:48:30.875Z,7.48
2022-11-14T01:48:40.718Z,7.51
2022-11-14T01:48:50.762Z,7.48
2022-11-14T01:49:00.788Z,7.48
2022-11-14T01:49:10.971Z,7.50
2022-11-14T01:49:20.972Z,7.48
2022-11-14T01:49:31.159Z,7.48
2022-11-14T01:49:41.341Z,7.47
2022-11-14T01:49:51.353Z,7.47
2022-11-14T01:50:01.415Z,7.45
2022-11-14T01:50:11.399Z,7.47
2022-11-14T01:50:21.560Z,7.48
2022-11-14T01:50:31.581Z,7.47
2022-11-14T01:50:41.772Z,7.45
2022-11-14T01:50:51.834Z,7.47
2022-11-14T01:51:01.997Z,7.48
2022-11-14T01:51:12.036Z,7.47
2022-11-14T01:51:22.079Z,7.48
2022-11-14T01:51:32.144Z,7.45
2022-11-14T01:51:42.182Z,7.48
2022-11-14T01:51:52.190Z,7.48
2022-11-14T01:52:02.220Z,7.48
2022-11-14T01:52:12.388Z,7.47
2022-11-14T01:52:22.460Z,7.47
2022-11-14T01:52:32.509Z,7.48
2022-11-14T01:52:42.558Z,7.47
2022-11-14T01:52:52.566Z,7.48
2022-11-14T01:53:02.729Z,7.48
2022-11-14T01:53:12.719Z,7.50
2022-11-14T01:53:22.719Z,7.50
2022-11-14T01:53:32.900Z,7.48
2022-11-14T01:53:42.929Z,7.50
2022-11-14T01:53:52.944Z,7.50
2022-11-14T01:54:02.989Z,7.48
2022-11-14T01:54:13.049Z,7.50
2022-11-14T01:54:23.092Z,7.50
2022-11-14T01:54:33.099Z,7.50
2022-11-14T01:54:43.088Z,7.51
2022-11-14T01:54:53.225Z,7.51
2022-11-14T01:55:03.288Z,7.51
2022-11-14T01:55:13.309Z,7.52
2022-11-14T01:55:23.359Z,7.51
2022-11-14T01:55:33.373Z,7.51
2022-11-14T01:55:43.371Z,7.51
2022-11-14T01:55:53.510Z,7.51
2022-11-14T01:56:03.668Z,7.52
2022-11-14T01:56:13.832Z,7.51
2022-11-14T01:56:23.919Z,7.52
2022-11-14T01:56:33.903Z,7.54
2022-11-14T01:56:44.048Z,7.52
2022-11-14T01:56:54.070Z,7.52
2022-11-14T01:57:04.106Z,7.52
2022-11-14T01:57:14.338Z,7.54
2022-11-14T01:57:24.339Z,7.55
2022-11-14T01:57:34.503Z,7.54
2022-11-14T01:57:44.690Z,7.55
2022-11-14T01:57:54.739Z,7.55
2022-11-14T01:58:04.760Z,7.55
2022-11-14T01:58:14.769Z,7.55
2022-11-14T01:58:24.927Z,7.55
2022-11-14T01:58:35.069Z,7.57
2022-11-14T01:58:45.098Z,7.57
2022-11-14T01:58:55.208Z,7.57
2022-11-14T01:59:05.382Z,7.55
2022-11-14T01:59:15.428Z,7.55
2022-11-14T01:59:25.537Z,7.55
2022-11-14T01:59:35.628Z,7.55
2022-11-14T01:59:45.617Z,7.58
2022-11-14T01:59:55.629Z,7.57
2022-11-14T02:00:05.656Z,7.57
2022-11-14T02:00:15.688Z,7.57
2022-11-14T02:00:25.864Z,7.57
2022-11-14T02:00:35.912Z,7.58
2022-11-14T02:00:45.916Z,7.58
2022-11-14T02:00:55.966Z,7.60
2022-11-14T02:01:06.200Z,7.60
2022-11-14T02:01:16.384Z,7.60
2022-11-14T02:01:26.390Z,7.60
2022-11-14T02:01:36.441Z,7.60
2022-11-14T02:01:46.422Z,7.62
2022-11-14T02:01:56.498Z,7.60
2022-11-14T02:02:06.527Z,7.60
2022-11-14T02:02:16.578Z,7.60
2022-11-14T02:02:26.764Z,7.60
2022-11-14T02:02:36.850Z,7.60
2022-11-14T02:02:46.859Z,7.62
2022-11-14T02:02:56.878Z,7.62
2022-11-14T02:03:06.888Z,7.60
2022-11-14T02:03:16.952Z,7.60
2022-11-14T02:03:27.003Z,7.60
2022-11-14T02:03:37.005Z,7.62
2022-11-14T02:03:47.086Z,7.60
2022-11-14T02:03:57.119Z,7.63
2022-11-14T02:04:08.890Z,7.62
2022-11-14T02:04:17.549Z,7.62
2022-11-14T02:04:27.648Z,7.63
2022-11-14T02:04:37.672Z,7.60
2022-11-14T02:04:47.691Z,7.60
2022-11-14T02:04:57.684Z,7.62
2022-11-14T02:05:07.698Z,7.62
2022-11-14T02:05:17.883Z,7.63
2022-11-14T02:05:27.905Z,7.63
2022-11-14T02:05:37.899Z,7.66
2022-11-14T02:05:47.927Z,7.66
2022-11-14T02:05:58.087Z,7.63
2022-11-14T02:06:08.137Z,7.66
2022-11-14T02:06:18.186Z,7.63
2022-11-14T02:06:28.158Z,7.63
2022-11-14T02:06:38.186Z,7.66
2022-11-14T02:06:48.305Z,7.67
2022-11-14T02:06:58.502Z,7.63
2022-11-14T02:07:08.570Z,7.66
2022-11-14T02:07:18.764Z,7.66
2022-11-14T02:07:28.749Z,7.67
2022-11-14T02:07:38.919Z,7.67
2022-11-14T02:07:48.858Z,7.67
2022-11-14T02:07:59.007Z,7.67
2022-11-14T02:08:09.087Z,7.67
2022-11-14T02:08:19.089Z,7.67
2022-11-14T02:08:29.479Z,7.69
2022-11-14T02:08:39.189Z,7.69
2022-11-14T02:08:49.209Z,7.69
2022-11-14T02:08:59.368Z,7.69
2022-11-14T02:09:09.397Z,7.70
2022-11-14T02:09:19.445Z,7.70
2022-11-14T02:09:29.425Z,7.70
2022-11-14T02:09:39.542Z,7.69
2022-11-14T02:09:49.615Z,7.71
2022-11-14T02:09:59.641Z,7.70
2022-11-14T02:10:09.715Z,7.70
2022-11-14T02:10:19.763Z,7.73
2022-11-14T02:10:29.773Z,7.69
2022-11-14T02:10:39.774Z,7.71
2022-11-14T02:10:49.796Z,7.71
2022-11-14T02:10:59.867Z,7.70
2022-11-14T02:11:09.931Z,7.73
2022-11-14T02:11:19.946Z,7.71
2022-11-14T02:11:29.976Z,7.71
2022-11-14T02:11:40.006Z,7.71
2022-11-14T02:11:50.187Z,7.73
2022-11-14T02:12:00.278Z,7.73
2022-11-14T02:12:10.389Z,7.73
2022-11-14T02:12:20.429Z,7.74
2022-11-14T02:12:30.451Z,7.73
2022-11-14T02:12:40.464Z,7.76
2022-11-14T02:12:50.480Z,7.74
2022-11-14T02:13:00.527Z,7.73
2022-11-14T02:13:10.700Z,7.74
2022-11-14T02:13:20.717Z,7.74
2022-11-14T02:13:30.716Z,7.76
2022-11-14T02:13:40.737Z,7.76
2022-11-14T02:13:50.789Z,7.76
2022-11-14T02:14:00.920Z,7.77